createdAt,value
2023-04-03T00:01:21.144Z,1.40
2023-04-03T00:03:49.436Z,1.40
2023-04-03T00:06:17.702Z,1.40
2023-04-03T00:08:47.034Z,1.42
2023-04-03T00:11:16.153Z,1.48
2023-04-03T00:13:44.852Z,1.98
2023-04-03T00:16:14.484Z,1.25
2023-04-03T00:18:43.154Z,2.00
2023-04-03T00:21:12.467Z,1.70
2023-04-03T00:23:43.162Z,1.50
2023-04-03T00:26:11.416Z,1.80
2023-04-03T00:28:41.879Z,1.20
2023-04-03T00:31:10.439Z,1.40
2023-04-03T00:33:40.230Z,1.85
2023-04-03T00:36:09.990Z,1.60
2023-04-03T00:38:38.883Z,1.80
2023-04-03T00:41:08.129Z,1.48
2023-04-03T00:43:36.305Z,1.25
2023-04-03T00:46:04.675Z,1.50
2023-04-03T00:48:36.088Z,1.50
2023-04-03T00:51:07.867Z,1.60
2023-04-03T00:53:40.529Z,1.15
2023-04-03T00:56:12.633Z,1.05
2023-04-03T00:58:46.488Z,1.00
2023-04-03T01:01:20.655Z,0.90
2023-04-03T01:03:48.917Z,1.23
2023-04-03T01:06:21.139Z,1.00
2023-04-03T01:08:52.197Z,1.27
2023-04-03T01:11:21.645Z,1.15
2023-04-03T01:13:51.113Z,1.08
2023-04-03T01:16:20.464Z,1.20
2023-04-03T01:18:49.077Z,1.10
2023-04-03T01:21:47.844Z,1.45
2023-04-03T01:24:33.696Z,1.20
2023-04-03T01:27:06.644Z,1.40
2023-04-03T01:29:35.737Z,1.42
2023-04-03T01:32:05.952Z,1.10
2023-04-03T01:34:34.557Z,0.95
2023-04-03T01:37:03.347Z,1.20
2023-04-03T01:39:31.601Z,1.00
2023-04-03T01:42:00.335Z,1.20
2023-04-03T01:44:33.170Z,1.20
2023-04-03T01:47:01.974Z,1.20
2023-04-03T01:49:32.544Z,1.30
2023-04-03T01:52:01.004Z,1.30
2023-04-03T01:54:29.227Z,1.48
2023-04-03T01:56:57.905Z,1.30
2023-04-03T01:59:26.197Z,1.33
2023-04-03T02:01:55.161Z,1.40
2023-04-03T02:04:24.228Z,1.60
2023-04-03T02:06:53.807Z,1.88
2023-04-03T02:09:22.045Z,1.25
2023-04-03T02:11:50.818Z,1.67
2023-04-03T02:14:18.995Z,1.23
2023-04-03T02:16:47.408Z,1.30
2023-04-03T02:19:15.974Z,1.10
2023-04-03T02:21:44.363Z,1.30
2023-04-03T02:24:13.927Z,1.05
2023-04-03T02:26:42.130Z,1.13
2023-04-03T02:29:10.691Z,1.30
2023-04-03T02:31:38.931Z,1.23
2023-04-03T02:34:07.668Z,1.00
2023-04-03T02:36:37.531Z,1.48
2023-04-03T02:39:08.905Z,1.20
2023-04-03T02:41:38.888Z,1.17
2023-04-03T02:44:13.615Z,1.23
2023-04-03T02:46:42.089Z,1.38
2023-04-03T02:49:10.469Z,1.23
2023-04-03T02:51:39.044Z,1.25
2023-04-03T02:54:08.777Z,1.17
2023-04-03T02:56:41.468Z,1.00
2023-04-03T02:59:09.788Z,1.15
2023-04-03T03:01:40.420Z,1.30
2023-04-03T03:04:09.035Z,1.05
2023-04-03T03:06:37.338Z,5.43
2023-04-03T03:09:06.657Z,1.35
2023-04-03T03:11:34.993Z,1.30
2023-04-03T03:14:05.988Z,1.10
2023-04-03T03:16:35.505Z,1.13
2023-04-03T03:19:03.915Z,1.23
2023-04-03T03:21:33.316Z,1.17
2023-04-03T03:24:01.522Z,1.05
2023-04-03T03:26:30.299Z,1.30
2023-04-03T03:28:58.508Z,0.98
2023-04-03T03:31:28.230Z,1.10
2023-04-03T03:33:56.423Z,1.05
2023-04-03T03:36:24.664Z,0.93
2023-04-03T03:38:52.943Z,1.00
2023-04-03T03:41:21.628Z,1.27
2023-04-03T03:43:49.828Z,1.38
2023-04-03T03:46:18.898Z,1.35
2023-04-03T03:48:48.611Z,1.48
2023-04-03T03:51:17.905Z,1.60
2023-04-03T03:53:46.599Z,1.20
2023-04-03T03:56:17.788Z,1.15
2023-04-03T03:58:47.271Z,1.20
2023-04-03T04:01:16.182Z,1.25
2023-04-03T04:03:49.813Z,1.40
2023-04-03T04:06:22.396Z,1.00
2023-04-03T04:08:51.461Z,1.02
2023-04-03T04:11:20.016Z,1.00
2023-04-03T04:13:48.921Z,1.17
2023-04-03T04:16:19.280Z,1.08
2023-04-03T04:18:48.916Z,0.90
2023-04-03T04:21:18.731Z,0.85
2023-04-03T04:23:48.109Z,0.90
2023-04-03T04:26:16.939Z,1.27
2023-04-03T04:28:45.348Z,1.05
2023-04-03T04:31:13.658Z,0.95
2023-04-03T04:33:42.928Z,1.20
2023-04-03T04:36:16.558Z,1.90
2023-04-03T04:38:47.081Z,0.80
2023-04-03T04:41:16.985Z,1.40
2023-04-03T04:43:45.264Z,1.50
2023-04-03T04:46:13.690Z,1.00
2023-04-03T04:48:47.359Z,1.20
2023-04-03T04:51:18.169Z,0.82
2023-04-03T04:53:46.430Z,1.27
2023-04-03T04:56:17.155Z,1.10
2023-04-03T04:58:45.798Z,2.05
2023-04-03T05:01:14.270Z,8.50
2023-04-03T05:03:53.606Z,1.83
2023-04-03T05:06:23.570Z,1.90
2023-04-03T05:08:51.768Z,1.60
2023-04-03T05:11:21.276Z,1.73
2023-04-03T05:13:53.681Z,1.80
2023-04-03T05:16:23.934Z,1.63
2023-04-03T05:18:52.541Z,1.40
2023-04-03T05:21:27.117Z,1.92
2023-04-03T05:23:55.404Z,1.23
2023-04-03T05:26:23.685Z,1.80
2023-04-03T05:28:52.894Z,1.33
2023-04-03T05:31:22.226Z,1.48
2023-04-03T05:33:51.000Z,1.50
2023-04-03T05:36:21.628Z,1.60
2023-04-03T05:38:57.236Z,1.50
2023-04-03T05:41:26.647Z,1.80
2023-04-03T05:43:55.078Z,1.30
2023-04-03T05:46:25.460Z,1.38
2023-04-03T05:48:57.257Z,1.45
2023-04-03T05:51:35.984Z,1.80
2023-04-03T05:54:28.352Z,1.80
2023-04-03T05:57:17.016Z,1.20
2023-04-03T05:59:45.609Z,1.42
2023-04-03T06:02:15.892Z,1.40
2023-04-03T06:04:44.345Z,1.50
2023-04-03T06:07:15.060Z,1.17
2023-04-03T06:09:45.110Z,1.33
2023-04-03T06:12:14.207Z,0.82
2023-04-03T06:14:45.770Z,1.20
2023-04-03T06:17:16.776Z,0.95
2023-04-03T06:19:45.380Z,0.98
2023-04-03T06:22:13.885Z,0.93
2023-04-03T06:24:44.729Z,1.23
2023-04-03T06:27:13.491Z,1.20
2023-04-03T06:29:44.192Z,1.50
2023-04-03T06:32:12.388Z,1.80
2023-04-03T06:34:40.689Z,1.27
2023-04-03T06:37:08.872Z,1.60
2023-04-03T06:39:37.087Z,1.58
2023-04-03T06:42:06.763Z,1.77
2023-04-03T06:44:47.877Z,1.48
2023-04-03T06:47:16.982Z,1.13
2023-04-03T06:49:46.067Z,1.27
2023-04-03T06:52:14.320Z,1.05
2023-04-03T06:54:43.088Z,1.50
2023-04-03T06:57:12.653Z,2.20
2023-04-03T06:59:41.189Z,1.92
2023-04-03T07:02:11.169Z,1.75
2023-04-03T07:04:40.374Z,1.20
2023-04-03T07:07:08.713Z,1.73
2023-04-03T07:09:37.094Z,1.50
2023-04-03T07:12:05.533Z,1.10
2023-04-03T07:14:35.490Z,1.45
2023-04-03T07:17:03.749Z,3.25
2023-04-03T07:19:32.274Z,1.60
2023-04-03T07:22:03.056Z,1.85
2023-04-03T07:24:31.226Z,1.00
2023-04-03T07:26:59.650Z,1.35
2023-04-03T07:29:28.388Z,1.20
2023-04-03T07:31:58.502Z,1.40
2023-04-03T07:34:26.974Z,1.08
2023-04-03T07:36:55.796Z,1.33
2023-04-03T07:39:24.019Z,1.77
2023-04-03T07:41:52.261Z,1.23
2023-04-03T07:44:21.848Z,0.95
2023-04-03T07:46:51.486Z,1.00
2023-04-03T07:49:21.023Z,0.90
2023-04-03T07:51:49.545Z,1.10
2023-04-03T07:54:17.754Z,1.05
2023-04-03T07:56:46.046Z,1.13
2023-04-03T07:59:14.265Z,1.77
2023-04-03T08:01:42.461Z,1.58
2023-04-03T08:04:11.166Z,0.95
2023-04-03T08:06:46.937Z,1.17
2023-04-03T08:09:16.496Z,1.10
2023-04-03T08:11:45.498Z,1.25
2023-04-03T08:14:17.665Z,1.30
2023-04-03T08:16:50.064Z,1.08
2023-04-03T08:19:26.304Z,1.60
2023-04-03T08:21:57.743Z,1.20
2023-04-03T08:24:26.272Z,0.82
2023-04-03T08:26:54.515Z,0.65
2023-04-03T08:29:23.132Z,1.10
2023-04-03T08:31:51.849Z,1.63
2023-04-03T08:34:20.618Z,1.45
2023-04-03T08:36:49.182Z,0.90
2023-04-03T08:39:18.831Z,1.05
2023-04-03T08:41:48.853Z,1.17
2023-04-03T08:44:24.376Z,1.70
2023-04-03T08:47:10.069Z,1.30
2023-04-03T08:49:47.923Z,1.80
2023-04-03T08:52:18.577Z,1.30
2023-04-03T08:54:53.475Z,1.50
2023-04-03T08:57:31.053Z,1.70
2023-04-03T09:00:01.828Z,2.53
2023-04-03T09:02:35.104Z,1.70
2023-04-03T09:05:04.777Z,1.50
2023-04-03T09:07:39.106Z,2.38
2023-04-03T09:10:11.333Z,1.98
2023-04-03T09:12:44.674Z,1.40
2023-04-03T09:15:27.904Z,1.55
2023-04-03T09:18:08.890Z,2.00
2023-04-03T09:20:45.944Z,1.40
2023-04-03T09:23:21.498Z,1.40
2023-04-03T09:25:55.285Z,1.55
2023-04-03T09:28:23.542Z,1.50
2023-04-03T09:30:51.731Z,1.98
2023-04-03T09:33:20.676Z,1.80
2023-04-03T09:35:50.716Z,2.00
2023-04-03T09:38:25.023Z,2.33
2023-04-03T09:41:08.551Z,1.83
2023-04-03T09:43:39.645Z,1.67
2023-04-03T09:46:30.172Z,1.42
2023-04-03T09:49:08.192Z,2.13
2023-04-03T09:51:37.898Z,1.10
2023-04-03T09:54:39.521Z,1.40
2023-04-03T09:57:14.134Z,1.33
2023-04-03T09:59:47.252Z,1.35
2023-04-03T10:02:31.083Z,1.02
2023-04-03T10:07:38.028Z,1.35
2023-04-03T10:10:21.612Z,1.50
2023-04-03T10:12:51.601Z,1.30
2023-04-03T10:15:21.132Z,1.15
2023-04-03T10:18:00.392Z,1.17
2023-04-03T10:20:38.269Z,1.20
2023-04-03T10:23:21.017Z,1.30
2023-04-03T10:26:02.040Z,3.13
2023-04-03T10:28:39.253Z,1.42
2023-04-03T10:31:16.539Z,1.23
2023-04-03T10:33:55.491Z,1.02
2023-04-03T10:36:35.801Z,1.23
2023-04-03T10:39:14.385Z,1.23
2023-04-03T10:42:00.712Z,1.40
2023-04-03T10:44:51.177Z,1.27
2023-04-03T10:47:23.976Z,1.00
2023-04-03T10:50:02.190Z,1.38
2023-04-03T10:52:38.802Z,1.13
2023-04-03T10:55:25.096Z,1.35
2023-04-03T10:57:55.053Z,1.63
2023-04-03T11:00:38.233Z,1.20
2023-04-03T11:03:11.100Z,1.42
2023-04-03T11:05:44.850Z,1.52
2023-04-03T11:08:20.454Z,1.35
2023-04-03T11:10:52.723Z,1.50
2023-04-03T11:13:26.208Z,0.80
2023-04-03T11:15:56.511Z,1.20
2023-04-03T11:18:29.273Z,1.20
2023-04-03T11:21:05.017Z,1.40
2023-04-03T11:23:48.258Z,1.42
2023-04-03T11:26:21.908Z,1.08
2023-04-03T11:28:55.951Z,1.20
2023-04-03T11:31:46.608Z,1.00
2023-04-03T11:34:30.726Z,1.15
2023-04-03T11:37:01.514Z,1.33
2023-04-03T11:39:34.682Z,1.45
2023-04-03T11:42:18.805Z,1.60
2023-04-03T11:44:47.356Z,0.98
2023-04-03T11:47:47.227Z,1.00
2023-04-03T11:50:32.877Z,1.08
2023-04-03T11:53:26.113Z,1.00
2023-04-03T11:55:59.784Z,1.08
2023-04-03T11:58:30.310Z,1.48
2023-04-03T12:01:10.584Z,0.70
2023-04-03T12:04:08.101Z,1.13
2023-04-03T12:07:05.292Z,0.90
2023-04-03T12:09:59.190Z,0.90
2023-04-03T12:12:32.588Z,5.78
2023-04-03T12:15:23.169Z,1.90
2023-04-03T12:17:52.754Z,1.33
2023-04-03T12:20:57.609Z,1.25
2023-04-03T12:23:29.670Z,0.95
2023-04-03T12:26:05.658Z,1.60
2023-04-03T12:28:43.895Z,1.27
2023-04-03T12:31:13.700Z,1.33
2023-04-03T12:34:06.740Z,1.83
2023-04-03T12:36:46.502Z,1.60
2023-04-03T12:39:38.599Z,1.40
2023-04-03T12:42:33.184Z,1.25
2023-04-03T12:45:18.369Z,1.25
2023-04-03T12:47:52.790Z,1.00
2023-04-03T12:50:25.921Z,1.63
2023-04-03T12:52:59.876Z,1.23
2023-04-03T12:55:28.493Z,1.15
2023-04-03T12:57:56.646Z,1.30
2023-04-03T13:00:33.566Z,1.20
2023-04-03T13:03:03.365Z,1.00
2023-04-03T13:05:35.923Z,1.08
2023-04-03T13:08:11.697Z,1.33
2023-04-03T13:10:54.470Z,1.10
2023-04-03T13:13:23.961Z,1.48
2023-04-03T13:15:53.690Z,1.85
2023-04-03T13:18:28.037Z,1.58
2023-04-03T13:21:03.503Z,1.02
2023-04-03T13:23:35.534Z,1.27
2023-04-03T13:26:04.541Z,1.48
2023-04-03T13:28:35.259Z,1.60
2023-04-03T13:31:12.656Z,1.30
2023-04-03T13:33:54.151Z,1.33
2023-04-03T13:36:29.559Z,1.70
2023-04-03T13:39:06.285Z,1.52
2023-04-03T13:41:36.398Z,1.10
2023-04-03T13:44:30.630Z,1.50
2023-04-03T13:47:00.385Z,2.03
2023-04-03T13:49:34.908Z,1.25
2023-04-03T13:52:07.606Z,1.20
2023-04-03T13:54:40.594Z,0.90
2023-04-03T13:57:16.709Z,1.50
2023-04-03T13:59:45.834Z,0.98
2023-04-03T14:02:22.653Z,1.10
2023-04-03T14:04:57.269Z,1.35
2023-04-03T14:07:25.958Z,1.20
2023-04-03T14:09:56.419Z,1.10
2023-04-03T14:12:31.930Z,1.27
2023-04-03T14:15:04.968Z,1.15
2023-04-03T14:17:33.654Z,4.20
2023-04-03T14:20:02.583Z,2.40
2023-04-03T14:22:34.526Z,1.33
2023-04-03T14:25:04.362Z,1.05
2023-04-03T14:27:38.784Z,1.15
2023-04-03T14:30:11.589Z,1.13
2023-04-03T14:32:39.867Z,0.88
2023-04-03T14:35:08.779Z,1.23
2023-04-03T14:37:37.008Z,1.30
2023-04-03T14:40:08.780Z,1.20
2023-04-03T14:42:38.935Z,1.30
2023-04-03T14:45:10.414Z,1.20
2023-04-03T14:47:43.829Z,1.30
2023-04-03T14:50:16.702Z,1.08
2023-04-03T14:52:46.329Z,1.42
2023-04-03T14:55:17.810Z,1.42
2023-04-03T14:57:46.343Z,1.27
2023-04-03T15:00:16.678Z,1.58
2023-04-03T15:02:45.255Z,1.10
2023-04-03T15:05:14.912Z,1.08
2023-04-03T15:07:44.957Z,2.10
2023-04-03T15:10:20.969Z,1.20
2023-04-03T15:12:50.248Z,1.52
2023-04-03T15:15:21.753Z,1.52
2023-04-03T15:17:54.872Z,1.70
2023-04-03T15:20:25.468Z,1.65
2023-04-03T15:22:53.804Z,1.88
2023-04-03T15:25:23.488Z,1.30
2023-04-03T15:27:51.822Z,3.28
2023-04-03T15:30:21.826Z,10.13
2023-04-03T15:32:50.445Z,4.18
2023-04-03T15:35:21.327Z,1.27
2023-04-03T15:37:49.897Z,1.50
2023-04-03T15:40:18.151Z,1.23
2023-04-03T15:42:47.792Z,1.35
2023-04-03T15:45:26.599Z,1.20
2023-04-03T15:47:54.898Z,1.58
2023-04-03T15:50:24.981Z,1.10
2023-04-03T15:52:56.207Z,1.35
2023-04-03T15:55:25.038Z,1.38
2023-04-03T15:57:55.387Z,1.40
2023-04-03T16:00:24.590Z,1.38
2023-04-03T16:02:55.183Z,1.40
2023-04-03T16:05:23.968Z,1.10
2023-04-03T16:07:52.581Z,1.30
2023-04-03T16:10:21.321Z,1.15
2023-04-03T16:12:49.545Z,1.58
2023-04-03T16:15:19.562Z,1.13
2023-04-03T16:17:48.989Z,1.30
2023-04-03T16:20:17.552Z,1.40
2023-04-03T16:22:45.854Z,4.13
2023-04-03T16:25:14.400Z,9.02
2023-04-03T16:27:42.632Z,6.70
2023-04-03T16:30:12.912Z,3.78
2023-04-03T16:32:42.869Z,6.13
2023-04-03T16:35:12.465Z,1.58
2023-04-03T16:37:41.451Z,2.88
2023-04-03T16:40:11.024Z,6.93
2023-04-03T16:42:39.512Z,13.82
2023-04-03T16:45:09.268Z,2.15
2023-04-03T16:47:37.551Z,11.07
2023-04-03T16:50:08.240Z,9.13
2023-04-03T16:52:36.542Z,13.88
2023-04-03T16:55:09.117Z,12.52
2023-04-03T16:57:37.288Z,6.03
2023-04-03T17:00:06.837Z,12.90
2023-04-03T17:02:35.413Z,19.08
2023-04-03T17:05:03.615Z,4.85
2023-04-03T17:07:33.208Z,6.55
2023-04-03T17:10:02.584Z,5.00
2023-04-03T17:12:30.842Z,17.05
2023-04-03T17:15:01.103Z,7.55
2023-04-03T17:17:29.417Z,27.15
2023-04-03T17:19:58.029Z,7.85
2023-04-03T17:22:26.329Z,2.78
2023-04-03T17:24:55.894Z,3.70
2023-04-03T17:27:24.455Z,3.67
2023-04-03T17:29:52.772Z,3.08
2023-04-03T17:32:21.087Z,4.25
2023-04-03T17:34:49.482Z,3.22
2023-04-03T17:37:17.714Z,5.63
2023-04-03T17:39:46.959Z,5.57
2023-04-03T17:42:18.111Z,2.53
2023-04-03T17:44:46.436Z,2.92
2023-04-03T17:47:14.680Z,2.20
2023-04-03T17:49:43.030Z,1.75
2023-04-03T17:52:11.199Z,1.90
2023-04-03T17:54:39.406Z,4.45
2023-04-03T17:57:08.850Z,4.35
2023-04-03T17:59:38.972Z,3.15
2023-04-03T18:02:08.398Z,3.58
2023-04-03T18:04:36.610Z,2.75
2023-04-03T18:07:09.438Z,2.25
2023-04-03T18:09:41.274Z,2.17
2023-04-03T18:12:11.017Z,2.33
2023-04-03T18:14:43.461Z,2.35
2023-04-03T18:17:11.655Z,3.13
2023-04-03T18:19:39.879Z,5.90
2023-04-03T18:22:15.665Z,5.85
2023-04-03T18:24:44.997Z,5.70
2023-04-03T18:27:18.414Z,6.47
2023-04-03T18:29:50.377Z,6.95
2023-04-03T18:32:20.781Z,4.97
2023-04-03T18:34:49.037Z,4.40
2023-04-03T18:37:17.341Z,4.38
2023-04-03T18:39:45.501Z,3.92
2023-04-03T18:42:16.311Z,4.22
2023-04-03T18:44:51.978Z,3.97
2023-04-03T18:47:20.472Z,2.55
2023-04-03T18:49:48.688Z,2.55
2023-04-03T18:52:16.864Z,2.47
2023-04-03T18:54:45.079Z,4.55
2023-04-03T18:57:13.252Z,4.10
2023-04-03T18:59:41.450Z,6.65
2023-04-03T19:02:12.388Z,6.90
2023-04-03T19:04:40.694Z,7.95
2023-04-03T19:07:10.265Z,4.80
2023-04-03T19:09:39.710Z,3.75
2023-04-03T19:12:08.811Z,3.95
2023-04-03T19:14:37.065Z,3.25
2023-04-03T19:17:07.362Z,3.42
2023-04-03T19:19:38.057Z,3.08
2023-04-03T19:22:07.645Z,3.63
2023-04-03T19:24:35.975Z,3.20
2023-04-03T19:27:04.271Z,2.70
2023-04-03T19:29:32.464Z,3.20
2023-04-03T19:32:00.858Z,3.45
2023-04-03T19:34:29.133Z,3.53
2023-04-03T19:36:58.769Z,3.22
2023-04-03T19:39:29.030Z,3.20
2023-04-03T19:41:58.388Z,2.58
2023-04-03T19:44:27.386Z,3.47
2023-04-03T19:46:56.251Z,3.30
2023-04-03T19:49:24.575Z,2.90
2023-04-03T19:51:53.332Z,2.50
2023-04-03T19:54:23.620Z,2.80
2023-04-03T19:56:51.832Z,2.88
2023-04-03T19:59:19.981Z,2.65
2023-04-03T20:01:48.237Z,2.92
2023-04-03T20:04:16.677Z,2.75
2023-04-03T20:06:47.258Z,2.25
2023-04-03T20:09:16.035Z,3.05
2023-04-03T20:11:47.591Z,2.80
2023-04-03T20:14:16.503Z,3.45
2023-04-03T20:16:47.630Z,3.55
2023-04-03T20:19:16.728Z,4.47
2023-04-03T20:21:45.094Z,3.28
2023-04-03T20:24:15.032Z,3.47
2023-04-03T20:26:47.140Z,3.33
2023-04-03T20:29:16.686Z,3.25
2023-04-03T20:31:47.726Z,2.78
2023-04-03T20:34:15.992Z,3.05
2023-04-03T20:36:48.058Z,3.92
2023-04-03T20:39:19.016Z,4.25
2023-04-03T20:41:49.637Z,4.78
2023-04-03T20:44:19.817Z,3.38
2023-04-03T20:46:53.369Z,4.70
2023-04-03T20:49:22.716Z,4.57
2023-04-03T20:51:51.601Z,4.60
2023-04-03T20:54:20.136Z,4.57
2023-04-03T20:56:50.372Z,3.75
2023-04-03T20:59:18.893Z,4.25
2023-04-03T21:01:48.908Z,3.55
2023-04-03T21:04:23.616Z,3.17
2023-04-03T21:07:29.071Z,3.38
2023-04-03T21:10:35.674Z,2.30
2023-04-03T21:13:41.338Z,3.38
2023-04-03T21:16:09.219Z,3.78
2023-04-03T21:18:49.729Z,3.15
2023-04-03T21:21:23.094Z,2.53
2023-04-03T21:23:52.603Z,2.10
2023-04-03T21:26:21.940Z,2.65
2023-04-03T21:28:52.171Z,2.00
2023-04-03T21:31:22.583Z,2.20
2023-04-03T21:33:52.487Z,1.98
2023-04-03T21:36:20.667Z,3.08
2023-04-03T21:38:49.969Z,2.60
2023-04-03T21:41:18.146Z,2.58
2023-04-03T21:43:48.012Z,2.22
2023-04-03T21:46:16.358Z,1.92
2023-04-03T21:48:46.977Z,2.33
2023-04-03T21:51:17.136Z,2.25
2023-04-03T21:53:46.561Z,2.25
2023-04-03T21:56:14.719Z,1.98
2023-04-03T21:58:42.998Z,2.45
2023-04-03T22:01:11.870Z,2.05
2023-04-03T22:03:41.300Z,2.08
2023-04-03T22:06:10.179Z,1.92
2023-04-03T22:08:39.824Z,1.77
2023-04-03T22:11:10.551Z,2.42
2023-04-03T22:13:38.739Z,2.20
2023-04-03T22:16:07.549Z,2.70
2023-04-03T22:18:36.430Z,1.92
2023-04-03T22:21:05.924Z,3.75
2023-04-03T22:23:34.132Z,1.98
2023-04-03T22:26:06.289Z,2.30
2023-04-03T22:28:36.552Z,2.25
2023-04-03T22:31:07.307Z,2.50
2023-04-03T22:33:36.435Z,3.08
2023-04-03T22:36:09.302Z,3.22
2023-04-03T22:38:37.948Z,1.95
2023-04-03T22:41:09.016Z,2.78
2023-04-03T22:43:38.468Z,2.60
2023-04-03T22:46:08.390Z,2.80
2023-04-03T22:48:36.831Z,2.00
2023-04-03T22:51:07.319Z,2.33
2023-04-03T22:53:35.940Z,2.65
2023-04-03T22:56:08.311Z,2.08
2023-04-03T22:58:39.362Z,2.10
2023-04-03T23:01:09.093Z,2.60
2023-04-03T23:03:38.926Z,2.28
2023-04-03T23:06:07.807Z,1.80
2023-04-03T23:08:38.032Z,2.17
2023-04-03T23:11:09.298Z,2.15
2023-04-03T23:13:39.406Z,1.83
2023-04-03T23:16:08.049Z,1.95
2023-04-03T23:18:39.621Z,2.17
2023-04-03T23:21:09.248Z,2.13
2023-04-03T23:23:37.527Z,2.10
2023-04-03T23:26:06.057Z,1.88
2023-04-03T23:28:34.265Z,2.17
2023-04-03T23:31:06.561Z,2.40
2023-04-03T23:33:35.431Z,2.05
2023-04-03T23:36:08.569Z,2.45
2023-04-03T23:38:37.446Z,2.33
2023-04-03T23:41:06.009Z,2.28
2023-04-03T23:43:34.199Z,2.42
2023-04-03T23:46:03.822Z,2.13
2023-04-03T23:48:32.061Z,2.15
2023-04-03T23:51:00.228Z,2.85
2023-04-03T23:53:28.598Z,2.17
2023-04-03T23:55:56.993Z,1.95
2023-04-03T23:58:25.200Z,2.20
